createdAt,value
2022-08-21T00:00:58.938Z,34.60
2022-08-21T00:05:46.982Z,33.27
2022-08-21T00:10:32.266Z,33.73
2022-08-21T00:15:20.193Z,33.53
2022-08-21T00:20:05.748Z,33.77
2022-08-21T00:24:49.662Z,33.97
2022-08-21T00:29:34.653Z,35.10
2022-08-21T00:34:18.705Z,35.17
2022-08-21T00:39:03.367Z,35.77
2022-08-21T00:43:49.274Z,32.43
2022-08-21T00:48:39.171Z,35.03
2022-08-21T00:53:23.934Z,33.07
2022-08-21T00:58:10.267Z,34.77
2022-08-21T01:02:54.244Z,34.17
2022-08-21T01:07:39.670Z,34.50
2022-08-21T01:12:23.948Z,33.60
2022-08-21T01:17:08.920Z,34.43
2022-08-21T01:21:54.791Z,28.10
2022-08-21T01:26:39.137Z,23.97
2022-08-21T01:31:26.091Z,20.33
2022-08-21T01:36:10.813Z,17.77
2022-08-21T01:40:57.501Z,11.10
2022-08-21T01:45:41.644Z,8.17
2022-08-21T01:50:28.051Z,7.10
2022-08-21T01:55:13.673Z,7.37
2022-08-21T01:59:58.947Z,8.77
2022-08-21T02:04:42.536Z,9.23
2022-08-21T02:09:29.596Z,11.57
2022-08-21T02:14:32.273Z,9.63
2022-08-21T02:19:18.881Z,12.30
2022-08-21T02:24:02.597Z,9.20
2022-08-21T02:28:46.404Z,12.40
2022-08-21T02:33:30.150Z,10.83
2022-08-21T02:38:17.595Z,14.37
2022-08-21T02:43:02.260Z,14.93
2022-08-21T02:47:50.595Z,14.83
2022-08-21T02:52:34.537Z,14.23
2022-08-21T02:57:19.627Z,16.03
2022-08-21T03:02:03.461Z,14.97
2022-08-21T03:06:47.452Z,14.33
2022-08-21T03:11:31.566Z,15.13
2022-08-21T03:16:17.050Z,14.20
2022-08-21T03:21:01.153Z,13.37
2022-08-21T03:25:45.111Z,14.23
2022-08-21T03:30:32.218Z,13.10
2022-08-21T03:35:17.390Z,13.77
2022-08-21T03:40:01.308Z,13.13
2022-08-21T03:44:45.006Z,13.10
2022-08-21T03:49:29.236Z,14.23
2022-08-21T03:54:14.281Z,17.73
2022-08-21T03:58:58.154Z,18.47
2022-08-21T04:03:41.780Z,18.27
2022-08-21T04:08:25.767Z,21.90
2022-08-21T04:13:10.927Z,18.03
2022-08-21T04:17:55.665Z,21.30
2022-08-21T04:22:39.650Z,22.10
2022-08-21T04:27:23.504Z,22.20
2022-08-21T04:32:09.276Z,22.93
2022-08-21T04:36:53.256Z,25.00
2022-08-21T04:41:37.523Z,27.40
2022-08-21T04:46:21.500Z,27.33
2022-08-21T04:51:12.180Z,27.13
2022-08-21T04:55:58.836Z,26.23
2022-08-21T05:00:43.208Z,25.43
2022-08-21T05:05:27.600Z,25.57
2022-08-21T05:10:14.092Z,24.87
2022-08-21T05:14:58.027Z,23.10
2022-08-21T05:19:41.954Z,22.60
2022-08-21T05:24:25.818Z,21.50
2022-08-21T05:29:12.927Z,22.43
2022-08-21T05:33:57.195Z,20.40
2022-08-21T05:38:41.344Z,18.40
2022-08-21T05:43:25.675Z,20.73
2022-08-21T05:48:11.861Z,19.37
2022-08-21T05:52:56.692Z,18.53
2022-08-21T05:57:51.420Z,17.97
2022-08-21T06:02:35.567Z,18.40
2022-08-21T06:07:21.838Z,18.63
2022-08-21T06:12:06.874Z,18.37
2022-08-21T06:16:50.874Z,18.90
2022-08-21T06:21:34.707Z,18.20
2022-08-21T06:26:25.499Z,17.20
2022-08-21T06:31:14.717Z,18.73
2022-08-21T06:35:58.543Z,17.70
2022-08-21T06:40:43.912Z,16.17
2022-08-21T06:45:32.645Z,16.87
2022-08-21T06:50:16.412Z,17.03
2022-08-21T06:55:26.228Z,15.67
2022-08-21T07:00:13.844Z,16.37
2022-08-21T07:04:59.035Z,14.50
2022-08-21T07:09:42.649Z,16.00
2022-08-21T07:14:26.425Z,15.23
2022-08-21T07:19:10.160Z,15.37
2022-08-21T07:23:55.984Z,15.67
2022-08-21T07:28:45.361Z,14.53
2022-08-21T07:33:31.449Z,15.63
2022-08-21T07:38:15.049Z,16.10
2022-08-21T07:43:00.487Z,16.67
2022-08-21T07:47:47.218Z,14.03
2022-08-21T07:52:31.199Z,12.77
2022-08-21T07:57:15.745Z,13.73
2022-08-21T08:02:03.984Z,13.57
2022-08-21T08:07:08.619Z,13.60
2022-08-21T08:11:52.531Z,13.50
2022-08-21T08:16:36.335Z,12.07
2022-08-21T08:21:22.089Z,12.33
2022-08-21T08:26:06.800Z,11.60
2022-08-21T08:30:51.633Z,11.40
2022-08-21T08:35:35.563Z,9.83
2022-08-21T08:40:31.478Z,9.17
2022-08-21T08:45:18.641Z,8.60
2022-08-21T08:50:06.375Z,6.77
2022-08-21T08:54:58.810Z,7.67
2022-08-21T08:59:51.367Z,8.40
2022-08-21T09:04:37.599Z,6.90
2022-08-21T09:09:33.535Z,6.97
2022-08-21T09:14:27.666Z,6.03
2022-08-21T09:19:29.283Z,4.77
2022-08-21T09:24:28.654Z,4.70
2022-08-21T09:29:13.896Z,4.40
2022-08-21T09:34:02.524Z,4.30
2022-08-21T09:38:55.371Z,4.22
2022-08-21T09:43:40.016Z,3.73
2022-08-21T09:48:27.196Z,2.80
2022-08-21T09:53:20.848Z,2.60
2022-08-21T09:58:05.946Z,3.10
2022-08-21T10:02:49.837Z,2.97
2022-08-21T10:07:34.792Z,2.63
2022-08-21T10:12:24.228Z,3.20
2022-08-21T10:17:18.715Z,2.70
2022-08-21T10:22:13.218Z,2.67
2022-08-21T10:27:04.427Z,2.80
2022-08-21T10:32:01.350Z,5.80
2022-08-21T10:36:54.624Z,3.50
2022-08-21T10:42:01.701Z,2.78
2022-08-21T10:46:51.869Z,2.60
2022-08-21T10:51:42.725Z,2.80
2022-08-21T10:56:31.493Z,3.20
2022-08-21T11:01:19.413Z,2.65
2022-08-21T11:06:09.044Z,2.50
2022-08-21T11:11:00.203Z,2.10
2022-08-21T11:15:52.676Z,2.40
2022-08-21T11:20:42.499Z,2.42
2022-08-21T11:25:36.913Z,1.92
2022-08-21T11:30:21.247Z,1.90
2022-08-21T11:35:15.813Z,1.95
2022-08-21T11:40:07.779Z,2.72
2022-08-21T11:44:57.613Z,2.28
2022-08-21T11:49:59.702Z,1.80
2022-08-21T11:54:48.454Z,2.15
2022-08-21T11:59:41.462Z,2.00
2022-08-21T12:04:49.867Z,2.17
2022-08-21T12:09:37.728Z,2.00
2022-08-21T12:14:22.803Z,2.00
2022-08-21T12:19:08.846Z,2.28
2022-08-21T12:24:05.024Z,2.40
2022-08-21T12:28:48.981Z,2.05
2022-08-21T12:33:37.441Z,1.70
2022-08-21T12:38:24.530Z,2.65
2022-08-21T12:43:16.904Z,2.20
2022-08-21T12:48:06.674Z,2.20
2022-08-21T12:53:00.519Z,1.88
2022-08-21T12:57:44.027Z,2.10
2022-08-21T13:02:32.235Z,2.22
2022-08-21T13:07:21.445Z,2.17
2022-08-21T13:12:10.557Z,2.30
2022-08-21T13:16:57.138Z,2.13
2022-08-21T13:21:43.906Z,2.00
2022-08-21T13:26:27.649Z,1.88
2022-08-21T13:31:12.976Z,1.98
2022-08-21T13:36:06.227Z,2.17
2022-08-21T13:40:53.842Z,1.60
2022-08-21T13:45:37.235Z,1.90
2022-08-21T13:50:24.932Z,1.73
2022-08-21T13:55:15.252Z,1.80
2022-08-21T14:00:17.013Z,2.10
2022-08-21T14:05:04.291Z,1.60
2022-08-21T14:09:49.864Z,1.48
2022-08-21T14:14:36.259Z,1.50
2022-08-21T14:19:23.432Z,1.90
2022-08-21T14:24:11.305Z,1.65
2022-08-21T14:29:01.707Z,2.60
2022-08-21T14:33:53.168Z,1.98
2022-08-21T14:38:38.754Z,1.65
2022-08-21T14:43:22.814Z,1.60
2022-08-21T14:48:07.765Z,1.52
2022-08-21T14:52:51.345Z,1.45
2022-08-21T14:57:36.214Z,1.52
2022-08-21T15:02:19.920Z,1.83
2022-08-21T15:07:05.871Z,1.65
2022-08-21T15:11:49.606Z,1.40
2022-08-21T15:16:33.381Z,1.40
2022-08-21T15:21:16.891Z,1.13
2022-08-21T15:26:02.217Z,1.47
2022-08-21T15:30:47.284Z,1.93
2022-08-21T15:35:30.879Z,1.90
2022-08-21T15:40:36.603Z,1.50
2022-08-21T15:45:22.299Z,1.40
2022-08-21T15:50:09.333Z,1.60
2022-08-21T15:54:53.395Z,1.20
2022-08-21T15:59:43.292Z,1.30
2022-08-21T16:04:29.660Z,1.50
2022-08-21T16:09:13.341Z,1.63
2022-08-21T16:13:57.712Z,1.33
2022-08-21T16:18:42.375Z,1.50
2022-08-21T16:23:30.523Z,1.60
2022-08-21T16:28:17.450Z,1.40
2022-08-21T16:33:03.232Z,1.33
2022-08-21T16:37:50.070Z,1.30
2022-08-21T16:42:39.081Z,2.37
2022-08-21T16:47:26.384Z,1.63
2022-08-21T16:52:10.906Z,1.80
2022-08-21T16:56:54.513Z,1.60
2022-08-21T17:01:40.671Z,1.50
2022-08-21T17:06:28.032Z,1.77
2022-08-21T17:11:32.547Z,11.00
2022-08-21T17:16:21.206Z,1.93
2022-08-21T17:21:07.052Z,1.90
2022-08-21T17:25:54.055Z,1.73
2022-08-21T17:30:42.799Z,1.50
2022-08-21T17:35:26.594Z,1.97
2022-08-21T17:40:15.446Z,2.17
2022-08-21T17:44:59.547Z,1.90
2022-08-21T17:49:43.179Z,1.90
2022-08-21T17:54:26.841Z,1.70
2022-08-21T17:59:12.326Z,1.60
2022-08-21T18:03:56.273Z,1.67
2022-08-21T18:08:39.687Z,1.87
2022-08-21T18:13:26.615Z,1.70
2022-08-21T18:18:12.420Z,2.07
2022-08-21T18:22:56.223Z,1.97
2022-08-21T18:27:42.598Z,2.07
2022-08-21T18:32:30.352Z,2.30
2022-08-21T18:37:17.107Z,2.10
2022-08-21T18:42:28.493Z,2.03
2022-08-21T18:47:20.429Z,2.33
2022-08-21T18:52:05.684Z,2.20
2022-08-21T18:56:54.367Z,2.17
2022-08-21T19:01:38.734Z,2.57
2022-08-21T19:06:24.431Z,2.30
2022-08-21T19:11:08.394Z,2.23
2022-08-21T19:15:54.115Z,2.60
2022-08-21T19:20:41.527Z,2.80
2022-08-21T19:25:33.301Z,2.47
2022-08-21T19:30:19.313Z,2.83
2022-08-21T19:35:04.651Z,2.50
2022-08-21T19:39:48.813Z,2.70
2022-08-21T19:44:36.013Z,2.60
2022-08-21T19:49:22.230Z,2.87
2022-08-21T19:54:10.930Z,2.93
2022-08-21T19:58:55.939Z,3.23
2022-08-21T20:03:39.576Z,2.97
2022-08-21T20:08:27.974Z,2.40
2022-08-21T20:13:13.385Z,2.90
2022-08-21T20:17:56.872Z,2.60
2022-08-21T20:22:41.911Z,2.53
2022-08-21T20:27:28.532Z,2.27
2022-08-21T20:32:13.400Z,2.90
2022-08-21T20:36:57.455Z,2.90
2022-08-21T20:41:45.290Z,3.30
2022-08-21T20:46:33.326Z,2.30
2022-08-21T20:51:24.721Z,2.80
2022-08-21T20:56:15.880Z,3.60
2022-08-21T21:01:02.466Z,2.93
2022-08-21T21:05:52.624Z,2.83
2022-08-21T21:10:42.661Z,3.30
2022-08-21T21:15:31.523Z,3.50
2022-08-21T21:25:39.777Z,3.03
2022-08-21T21:30:31.796Z,3.20
2022-08-21T21:35:17.756Z,2.97
2022-08-21T21:40:35.601Z,3.00
2022-08-21T21:45:25.877Z,3.17
2022-08-21T21:50:26.762Z,3.53
2022-08-21T21:55:29.978Z,3.00
2022-08-21T22:00:20.246Z,2.70
2022-08-21T22:05:09.410Z,3.07
2022-08-21T22:10:05.480Z,3.23
2022-08-21T22:14:49.636Z,3.07
2022-08-21T22:19:42.591Z,3.10
2022-08-21T22:24:29.312Z,3.10
2022-08-21T22:29:19.881Z,2.70
2022-08-21T22:34:17.932Z,2.83
2022-08-21T22:39:05.490Z,2.83
2022-08-21T22:43:57.108Z,2.83
2022-08-21T22:48:55.691Z,3.30
2022-08-21T22:53:43.122Z,3.20
2022-08-21T22:58:32.591Z,2.90
2022-08-21T23:03:26.294Z,3.87
2022-08-21T23:08:25.314Z,3.17
2022-08-21T23:13:12.747Z,3.50
2022-08-21T23:18:05.035Z,3.40
2022-08-21T23:23:00.340Z,3.63
2022-08-21T23:27:58.477Z,3.30
2022-08-21T23:33:01.980Z,3.30
2022-08-21T23:37:55.867Z,3.13
2022-08-21T23:42:57.712Z,3.53
2022-08-21T23:47:52.378Z,3.23
2022-08-21T23:52:49.359Z,3.40
2022-08-21T23:57:51.004Z,3.17
